createdAt,value
2016-11-24T00:00:32.615Z,78.6
2016-11-24T00:01:32.985Z,79.1
2016-11-24T00:02:33.360Z,78.9
2016-11-24T00:03:33.733Z,78.9
2016-11-24T00:04:34.107Z,79.1
2016-11-24T00:05:34.467Z,78.7
2016-11-24T00:06:34.826Z,78.6
2016-11-24T00:07:35.185Z,78.8
2016-11-24T00:08:35.549Z,78.8
2016-11-24T00:09:35.913Z,79.3
2016-11-24T00:10:36.285Z,79.1
2016-11-24T00:11:36.686Z,79.3
2016-11-24T00:12:37.052Z,79.3
2016-11-24T00:13:37.421Z,79.3
2016-11-24T00:14:37.784Z,79.1
2016-11-24T00:15:38.144Z,79.3
2016-11-24T00:16:38.500Z,79.3
2016-11-24T00:17:38.864Z,79.3
2016-11-24T00:18:39.230Z,79.3
2016-11-24T00:19:39.598Z,79.3
2016-11-24T00:20:39.972Z,79.1
2016-11-24T00:21:40.332Z,79.1
2016-11-24T00:22:40.690Z,79.2
2016-11-24T00:23:41.052Z,79.2
2016-11-24T00:24:41.419Z,79.3
2016-11-24T00:25:41.782Z,78.9
2016-11-24T00:26:42.143Z,79.2
2016-11-24T00:27:42.509Z,79.1
2016-11-24T00:28:42.867Z,79.3
2016-11-24T00:29:43.237Z,79.4
2016-11-24T00:30:43.607Z,79.4
2016-11-24T00:31:43.976Z,79.4
2016-11-24T00:32:44.347Z,79.4
2016-11-24T00:33:44.710Z,79.2
2016-11-24T00:34:45.066Z,79.5
2016-11-24T00:35:45.422Z,79.2
2016-11-24T00:36:45.780Z,79.3
2016-11-24T00:37:46.144Z,79.2
2016-11-24T00:38:46.514Z,79.2
2016-11-24T00:39:46.881Z,79.4
2016-11-24T00:40:47.251Z,79.6
2016-11-24T00:41:47.620Z,79.4
2016-11-24T00:42:47.976Z,79.5
2016-11-24T00:43:48.334Z,79.3
2016-11-24T00:44:48.691Z,79.4
2016-11-24T00:45:49.057Z,79.5
2016-11-24T00:46:49.427Z,79.2
2016-11-24T00:47:49.794Z,79.2
2016-11-24T00:48:50.164Z,79.4
2016-11-24T00:49:50.527Z,79.3
2016-11-24T00:50:50.882Z,79.4
2016-11-24T00:51:51.238Z,79.2
2016-11-24T00:52:51.599Z,79.4
2016-11-24T00:53:51.963Z,79.3
2016-11-24T00:54:52.335Z,79.1
2016-11-24T00:55:52.703Z,79.5
2016-11-24T00:56:53.062Z,79.3
2016-11-24T00:57:53.421Z,79.4
2016-11-24T00:58:53.791Z,79.5
2016-11-24T00:59:54.159Z,79.4
2016-11-24T01:00:54.531Z,79.6
2016-11-24T01:01:54.905Z,79.4
2016-11-24T01:02:55.265Z,79.3
2016-11-24T01:03:55.622Z,79
2016-11-24T01:04:55.982Z,79.2
2016-11-24T01:05:56.344Z,79.3
2016-11-24T01:06:56.715Z,79.3
2016-11-24T01:07:57.089Z,79.4
2016-11-24T01:08:57.465Z,79.1
2016-11-24T01:09:57.831Z,79.2
2016-11-24T01:10:58.189Z,79.2
2016-11-24T01:11:58.553Z,79.2
2016-11-24T01:12:58.917Z,79.4
2016-11-24T01:13:59.283Z,79.1
2016-11-24T01:14:59.651Z,79.2
2016-11-24T01:16:00.022Z,79.2
2016-11-24T01:17:00.391Z,79.2
2016-11-24T01:18:00.756Z,79.2
2016-11-24T01:19:01.113Z,79.2
2016-11-24T01:20:01.479Z,79.2
2016-11-24T01:21:01.843Z,79.3
2016-11-24T01:22:02.213Z,79.3
2016-11-24T01:23:02.585Z,79
2016-11-24T01:24:02.957Z,79.1
2016-11-24T01:25:03.338Z,79.6
2016-11-24T01:26:03.700Z,79
2016-11-24T01:27:04.061Z,79
2016-11-24T01:28:04.441Z,79.1
2016-11-24T01:29:04.814Z,79.2
2016-11-24T01:30:05.177Z,79.2
2016-11-24T01:31:05.540Z,79
2016-11-24T01:32:05.900Z,79.4
2016-11-24T01:33:06.284Z,79.6
2016-11-24T01:34:06.649Z,79
2016-11-24T01:35:07.022Z,79
2016-11-24T01:36:07.393Z,79
2016-11-24T01:37:07.759Z,79
2016-11-24T01:38:08.121Z,79
2016-11-24T01:39:08.482Z,79.5
2016-11-24T01:40:08.843Z,79.5
2016-11-24T01:41:09.200Z,79.1
2016-11-24T01:42:09.564Z,79.3
2016-11-24T01:43:09.929Z,79.5
2016-11-24T01:44:10.301Z,79.4
2016-11-24T01:45:10.667Z,79
2016-11-24T01:46:11.026Z,79.3
2016-11-24T01:47:11.388Z,79.5
2016-11-24T01:48:11.744Z,79.4
2016-11-24T01:49:12.101Z,79.4
2016-11-24T01:50:12.463Z,78.9
2016-11-24T01:51:12.826Z,79.6
2016-11-24T01:52:13.187Z,79.4
2016-11-24T01:53:13.559Z,79.1
2016-11-24T01:54:13.927Z,79.4
2016-11-24T01:55:14.285Z,79.2
2016-11-24T01:56:14.645Z,79.4
2016-11-24T01:57:15.003Z,79.4
2016-11-24T01:58:15.367Z,79.6
2016-11-24T01:59:15.735Z,79.4
2016-11-24T02:00:16.097Z,79.4
2016-11-24T02:01:16.455Z,79.6
2016-11-24T02:02:16.845Z,79.7
2016-11-24T02:03:17.208Z,79.1
2016-11-24T02:04:17.575Z,79.4
2016-11-24T02:05:17.942Z,79.4
2016-11-24T02:06:18.305Z,79.4
2016-11-24T02:07:18.669Z,79.4
2016-11-24T02:08:19.024Z,79.6
2016-11-24T02:09:19.382Z,79.9
2016-11-24T02:10:19.745Z,79.7
2016-11-24T02:11:20.116Z,79.9
2016-11-24T02:12:20.492Z,80
2016-11-24T02:13:20.864Z,79.9
2016-11-24T02:14:21.226Z,79.8
2016-11-24T02:15:21.583Z,79.8
2016-11-24T02:16:21.941Z,79.2
2016-11-24T02:17:22.299Z,79.9
2016-11-24T02:18:22.659Z,79.6
2016-11-24T02:19:23.028Z,79.7
2016-11-24T02:20:23.392Z,80
2016-11-24T02:21:23.758Z,79.8
2016-11-24T02:22:24.123Z,79.8
2016-11-24T02:23:24.484Z,80
2016-11-24T02:24:24.845Z,80
2016-11-24T02:25:25.207Z,79.9
2016-11-24T02:26:25.571Z,80
2016-11-24T02:27:25.938Z,80
2016-11-24T02:28:26.305Z,79.6
2016-11-24T02:29:26.673Z,79.7
2016-11-24T02:30:27.040Z,79.8
2016-11-24T02:31:27.400Z,79.7
2016-11-24T02:32:27.754Z,80
2016-11-24T02:33:28.119Z,79.6
2016-11-24T02:34:28.488Z,80
2016-11-24T02:35:28.855Z,79.8
2016-11-24T02:36:29.217Z,79.6
2016-11-24T02:37:29.581Z,79.7
2016-11-24T02:38:29.944Z,79.5
2016-11-24T02:39:30.301Z,80
2016-11-24T02:40:30.659Z,79.6
2016-11-24T02:41:31.019Z,80
2016-11-24T02:42:31.385Z,79.9
2016-11-24T02:43:31.760Z,79.7
2016-11-24T02:44:32.128Z,80
2016-11-24T02:45:32.498Z,79.9
2016-11-24T02:46:32.864Z,79.8
2016-11-24T02:47:33.222Z,80
2016-11-24T02:48:33.588Z,79.4
2016-11-24T02:49:33.949Z,79.9
2016-11-24T02:50:34.313Z,79.8
2016-11-24T02:51:34.678Z,79.6
2016-11-24T02:52:35.043Z,79.6
2016-11-24T02:53:35.417Z,79.6
2016-11-24T02:54:35.779Z,79.8
2016-11-24T02:55:36.136Z,79.9
2016-11-24T02:56:36.490Z,79.9
2016-11-24T02:57:36.849Z,79.6
2016-11-24T02:58:37.212Z,79.5
2016-11-24T02:59:37.592Z,79.8
2016-11-24T03:00:37.961Z,79.7
2016-11-24T03:01:38.329Z,79.5
2016-11-24T03:02:38.691Z,79.6
2016-11-24T03:03:39.049Z,79.6
2016-11-24T03:04:39.517Z,79.3
2016-11-24T03:05:39.888Z,79.3
2016-11-24T03:06:40.253Z,79.6
2016-11-24T03:07:40.612Z,79.9
2016-11-24T03:08:40.976Z,79.8
2016-11-24T03:09:41.332Z,79.9
2016-11-24T03:10:41.696Z,79.7
2016-11-24T03:11:42.065Z,79.8
2016-11-24T03:12:42.435Z,79.7
2016-11-24T03:13:42.806Z,79.6
2016-11-24T03:14:43.168Z,79.6
2016-11-24T03:15:43.538Z,79.5
2016-11-24T03:16:43.898Z,79.8
2016-11-24T03:17:44.256Z,79.5
2016-11-24T03:18:44.622Z,79.3
2016-11-24T03:19:44.988Z,79.6
2016-11-24T03:20:45.355Z,79.4
2016-11-24T03:21:45.726Z,79.3
2016-11-24T03:22:46.096Z,79.6
2016-11-24T03:23:46.458Z,79.7
2016-11-24T03:24:46.814Z,79.7
2016-11-24T03:25:47.173Z,79.6
2016-11-24T03:26:47.534Z,80
2016-11-24T03:27:47.905Z,79.9
2016-11-24T03:28:48.275Z,79.8
2016-11-24T03:29:48.645Z,79.6
2016-11-24T03:30:49.015Z,79.9
2016-11-24T03:31:49.375Z,79.9
2016-11-24T03:32:49.731Z,79.7
2016-11-24T03:33:50.094Z,79.5
2016-11-24T03:34:50.562Z,79.7
2016-11-24T03:35:50.927Z,79.7
2016-11-24T03:36:51.293Z,79.7
2016-11-24T03:37:51.653Z,79.5
2016-11-24T03:38:52.019Z,79.8
2016-11-24T03:39:52.388Z,79.6
2016-11-24T03:40:52.762Z,79.9
2016-11-24T03:41:53.125Z,79.7
2016-11-24T03:42:53.485Z,79.5
2016-11-24T03:43:53.847Z,79.6
2016-11-24T03:44:54.206Z,79.7
2016-11-24T03:45:54.564Z,79.6
2016-11-24T03:46:54.927Z,79.8
2016-11-24T03:47:55.296Z,79.6
2016-11-24T03:48:55.665Z,79.8
2016-11-24T03:49:56.037Z,79.8
2016-11-24T03:50:56.405Z,79.6
2016-11-24T03:51:56.765Z,79.9
2016-11-24T03:52:57.125Z,79.6
2016-11-24T03:53:57.485Z,79.6
2016-11-24T03:54:57.848Z,79.6
2016-11-24T03:55:58.215Z,79.6
2016-11-24T03:56:58.589Z,79.6
2016-11-24T03:57:58.956Z,79.8
2016-11-24T03:58:59.324Z,79.6
2016-11-24T03:59:59.686Z,79.6
2016-11-24T04:01:00.050Z,79.7
2016-11-24T04:02:00.443Z,79.6
2016-11-24T04:03:00.802Z,79.6
2016-11-24T04:04:01.171Z,79.6
2016-11-24T04:05:01.546Z,79.7
2016-11-24T04:06:01.925Z,79.7
2016-11-24T04:07:02.288Z,79.7
2016-11-24T04:08:02.649Z,79.6
2016-11-24T04:09:03.015Z,79.7
2016-11-24T04:10:03.382Z,79.6
2016-11-24T04:11:03.744Z,79.5
2016-11-24T04:12:04.103Z,79.5
2016-11-24T04:13:04.463Z,79.5
2016-11-24T04:14:04.823Z,79.6
2016-11-24T04:15:05.189Z,79.6
2016-11-24T04:16:05.554Z,79.9
2016-11-24T04:17:05.920Z,79.6
2016-11-24T04:18:06.285Z,79.6
2016-11-24T04:19:06.647Z,79.7
2016-11-24T04:20:07.002Z,79.5
2016-11-24T04:21:07.364Z,79.6
2016-11-24T04:22:07.721Z,79.5
2016-11-24T04:23:08.087Z,79.6
2016-11-24T04:24:08.462Z,79.9
2016-11-24T04:25:08.827Z,79.9
2016-11-24T04:26:09.196Z,79.8
2016-11-24T04:27:09.567Z,79.6
2016-11-24T04:28:09.930Z,79.5
2016-11-24T04:29:10.293Z,79.7
2016-11-24T04:30:10.652Z,79.7
2016-11-24T04:31:11.013Z,79.5
2016-11-24T04:32:11.405Z,79.6
2016-11-24T04:33:11.776Z,79.7
2016-11-24T04:34:12.147Z,79.9
2016-11-24T04:35:12.515Z,79.7
2016-11-24T04:36:12.870Z,79.9
2016-11-24T04:37:13.232Z,80
2016-11-24T04:38:13.591Z,79.8
2016-11-24T04:39:13.952Z,80
2016-11-24T04:40:14.325Z,79.7
2016-11-24T04:41:14.688Z,80.2
2016-11-24T04:42:15.049Z,80.2
2016-11-24T04:43:15.417Z,79.9
2016-11-24T04:44:15.787Z,79.6
2016-11-24T04:45:16.160Z,79.3
2016-11-24T04:46:16.532Z,79
2016-11-24T04:47:16.893Z,79.2
2016-11-24T04:48:17.252Z,79.1
2016-11-24T04:49:17.612Z,78.9
2016-11-24T04:50:17.975Z,78.4
2016-11-24T04:51:18.340Z,78
2016-11-24T04:52:18.710Z,78.3
2016-11-24T04:53:19.073Z,78.4
2016-11-24T04:54:19.439Z,78.4
2016-11-24T04:55:19.807Z,77.9
2016-11-24T04:56:20.167Z,77.9
2016-11-24T04:57:20.524Z,77.6
2016-11-24T04:58:20.883Z,78.3
2016-11-24T04:59:21.245Z,78
2016-11-24T05:00:21.619Z,78
2016-11-24T05:01:21.984Z,77.3
2016-11-24T05:02:22.352Z,77.6
2016-11-24T05:03:22.713Z,77.7
2016-11-24T05:04:23.072Z,77.7
2016-11-24T05:05:23.533Z,77.6
2016-11-24T05:06:23.895Z,77.5
2016-11-24T05:07:24.260Z,77.8
2016-11-24T05:08:24.623Z,77.5
2016-11-24T05:09:24.994Z,77.5
2016-11-24T05:10:25.366Z,77.3
2016-11-24T05:11:25.726Z,77.6
2016-11-24T05:12:26.083Z,77.6
2016-11-24T05:13:26.446Z,77.7
2016-11-24T05:14:26.818Z,77.7
2016-11-24T05:15:27.180Z,77.7
2016-11-24T05:16:27.536Z,77.5
2016-11-24T05:17:27.896Z,77.4
2016-11-24T05:18:28.251Z,77.8
2016-11-24T05:19:28.620Z,77.4
2016-11-24T05:20:28.989Z,77.7
2016-11-24T05:21:29.357Z,77.4
2016-11-24T05:22:29.723Z,78.1
2016-11-24T05:23:30.092Z,77.3
2016-11-24T05:24:30.453Z,77.3
2016-11-24T05:25:30.815Z,77.7
2016-11-24T05:26:31.183Z,77.6
2016-11-24T05:27:31.548Z,77.2
2016-11-24T05:28:31.916Z,77.4
2016-11-24T05:29:32.287Z,77.3
2016-11-24T05:30:32.656Z,77.5
2016-11-24T05:31:33.018Z,77.3
2016-11-24T05:32:33.379Z,77.3
2016-11-24T05:33:33.742Z,77.3
2016-11-24T05:34:34.103Z,77.8
2016-11-24T05:35:34.566Z,77.7
2016-11-24T05:36:34.936Z,77.7
2016-11-24T05:37:35.307Z,77.6
2016-11-24T05:38:35.676Z,78.1
2016-11-24T05:39:36.043Z,77.9
2016-11-24T05:40:36.407Z,78.1
2016-11-24T05:41:36.765Z,77.9
2016-11-24T05:42:37.124Z,77.7
2016-11-24T05:43:37.491Z,78.3
2016-11-24T05:44:37.860Z,78.6
2016-11-24T05:45:38.223Z,78.5
2016-11-24T05:46:38.586Z,78.4
2016-11-24T05:47:38.948Z,78.5
2016-11-24T05:48:39.319Z,78.4
2016-11-24T05:49:39.689Z,78.6
2016-11-24T05:50:40.061Z,78.1
2016-11-24T05:51:40.429Z,78.1
2016-11-24T05:52:40.784Z,78.3
2016-11-24T05:53:41.140Z,77.9
2016-11-24T05:54:41.498Z,77.9
2016-11-24T05:55:41.865Z,77.9
2016-11-24T05:56:42.231Z,78
2016-11-24T05:57:42.602Z,78
2016-11-24T05:58:42.975Z,77.4
2016-11-24T05:59:43.339Z,77.4
2016-11-24T06:00:43.700Z,77.3
2016-11-24T06:01:44.083Z,77.5
2016-11-24T06:02:44.443Z,77.7
2016-11-24T06:03:44.807Z,77.8
2016-11-24T06:04:45.180Z,77.2
2016-11-24T06:05:45.649Z,77.4
2016-11-24T06:06:46.015Z,77
2016-11-24T06:07:46.387Z,76.4
2016-11-24T06:08:46.749Z,76.7
2016-11-24T06:09:47.107Z,76.7
2016-11-24T06:10:47.475Z,76.8
2016-11-24T06:11:47.844Z,76.5
2016-11-24T06:12:48.212Z,76.9
2016-11-24T06:13:48.581Z,76.9
2016-11-24T06:14:48.951Z,76.1
2016-11-24T06:15:49.312Z,76.3
2016-11-24T06:16:49.671Z,76.2
2016-11-24T06:17:50.039Z,76
2016-11-24T06:18:50.410Z,75.9
2016-11-24T06:19:50.777Z,75.4
2016-11-24T06:20:51.134Z,75.4
2016-11-24T06:21:51.495Z,74.8
2016-11-24T06:22:51.852Z,74.3
2016-11-24T06:23:52.215Z,74.2
2016-11-24T06:24:52.591Z,74.2
2016-11-24T06:25:53.065Z,73.1
2016-11-24T06:26:53.437Z,72.6
2016-11-24T06:27:53.807Z,72.1
2016-11-24T06:28:54.168Z,72
2016-11-24T06:29:54.531Z,72.5
2016-11-24T06:30:54.894Z,72.4
2016-11-24T06:31:55.259Z,72
2016-11-24T06:32:55.627Z,72.2
2016-11-24T06:33:55.991Z,72.5
2016-11-24T06:34:56.364Z,72.2
2016-11-24T06:35:56.832Z,72.3
2016-11-24T06:36:57.193Z,72.5
2016-11-24T06:37:57.554Z,73
2016-11-24T06:38:57.916Z,72.8
2016-11-24T06:39:58.281Z,72.7
2016-11-24T06:40:58.654Z,72.9
2016-11-24T06:41:59.022Z,72.8
2016-11-24T06:42:59.389Z,72.8
2016-11-24T06:43:59.750Z,72.7
2016-11-24T06:45:00.114Z,72.9
2016-11-24T06:46:00.474Z,72.9
2016-11-24T06:47:00.834Z,72.7
2016-11-24T06:48:01.203Z,72.5
2016-11-24T06:49:01.568Z,72.5
2016-11-24T06:50:01.942Z,72.4
2016-11-24T06:51:02.319Z,72.4
2016-11-24T06:52:02.681Z,72.3
2016-11-24T06:53:03.038Z,72.3
2016-11-24T06:54:03.397Z,72.8
2016-11-24T06:55:03.763Z,73.2
2016-11-24T06:56:04.129Z,72.8
2016-11-24T06:57:04.503Z,72.8
2016-11-24T06:58:04.880Z,73
2016-11-24T06:59:05.245Z,72.6
2016-11-24T07:00:05.608Z,72.8
2016-11-24T07:01:05.970Z,72.8
2016-11-24T07:02:06.330Z,73
2016-11-24T07:03:06.692Z,72.8
2016-11-24T07:04:07.054Z,72.9
2016-11-24T07:05:07.420Z,72.9
2016-11-24T07:06:07.885Z,73
2016-11-24T07:07:08.252Z,72.9
2016-11-24T07:08:08.613Z,73.5
2016-11-24T07:09:08.970Z,73.6
2016-11-24T07:10:09.328Z,73.6
2016-11-24T07:11:09.685Z,73.8
2016-11-24T07:12:10.048Z,73.5
2016-11-24T07:13:10.424Z,73.4
2016-11-24T07:14:10.791Z,73.7
2016-11-24T07:15:11.160Z,73.9
2016-11-24T07:16:11.549Z,73.9
2016-11-24T07:17:11.914Z,73.9
2016-11-24T07:18:12.274Z,73.8
2016-11-24T07:19:12.633Z,74
2016-11-24T07:20:12.997Z,73.7
2016-11-24T07:21:13.364Z,73.5
2016-11-24T07:22:13.727Z,73.5
2016-11-24T07:23:14.086Z,73.7
2016-11-24T07:24:14.455Z,74
2016-11-24T07:25:14.832Z,73.5
2016-11-24T07:26:15.201Z,73.5
2016-11-24T07:27:15.563Z,73.6
2016-11-24T07:28:15.926Z,73.6
2016-11-24T07:29:16.283Z,73.8
2016-11-24T07:30:16.650Z,73.8
2016-11-24T07:31:17.010Z,73.6
2016-11-24T07:32:17.383Z,73.8
2016-11-24T07:33:17.751Z,73.9
2016-11-24T07:34:18.115Z,74
2016-11-24T07:35:18.479Z,74.2
2016-11-24T07:36:18.945Z,73.7
2016-11-24T07:37:19.310Z,73.3
2016-11-24T07:38:19.668Z,73.5
2016-11-24T07:39:20.030Z,73.4
2016-11-24T07:40:20.400Z,73.6
2016-11-24T07:41:20.769Z,73.8
2016-11-24T07:42:21.142Z,73.8
2016-11-24T07:43:21.511Z,73.3
2016-11-24T07:44:21.872Z,73.6
2016-11-24T07:45:22.230Z,74
2016-11-24T07:46:22.591Z,74.4
2016-11-24T07:47:22.953Z,74.1
2016-11-24T07:48:23.315Z,74.2
2016-11-24T07:49:23.685Z,74.1
2016-11-24T07:50:24.056Z,74.3
2016-11-24T07:51:24.427Z,74.2
2016-11-24T07:52:24.799Z,74.2
2016-11-24T07:53:25.159Z,74.1
2016-11-24T07:54:25.522Z,74.6
2016-11-24T07:55:25.895Z,74.2
2016-11-24T07:56:26.259Z,74.3
2016-11-24T07:57:26.614Z,74.5
2016-11-24T07:58:26.977Z,74.3
2016-11-24T07:59:27.337Z,74.3
2016-11-24T08:00:27.701Z,74.1
2016-11-24T08:01:28.071Z,74.2
2016-11-24T08:02:28.440Z,74.3
2016-11-24T08:03:28.805Z,74
2016-11-24T08:04:29.169Z,74.4
2016-11-24T08:05:29.539Z,74.2
2016-11-24T08:06:29.897Z,74.4
2016-11-24T08:07:30.260Z,74.4
2016-11-24T08:08:30.627Z,74.2
2016-11-24T08:09:31.001Z,74.6
2016-11-24T08:10:31.367Z,74.4
2016-11-24T08:11:31.738Z,74.7
2016-11-24T08:12:32.106Z,74.4
2016-11-24T08:13:32.466Z,74.2
2016-11-24T08:14:32.825Z,74.1
2016-11-24T08:15:33.186Z,74.1
2016-11-24T08:16:33.551Z,74.2
2016-11-24T08:17:33.923Z,74.2
2016-11-24T08:18:34.318Z,74.1
2016-11-24T08:19:34.686Z,74.4
2016-11-24T08:20:35.050Z,74.3
2016-11-24T08:21:35.407Z,74.7
2016-11-24T08:22:35.770Z,74.5
2016-11-24T08:23:36.165Z,74.3
2016-11-24T08:24:36.531Z,74.3
2016-11-24T08:25:36.898Z,74.2
2016-11-24T08:26:37.259Z,74.1
2016-11-24T08:27:37.617Z,74.3
2016-11-24T08:28:37.983Z,74.4
2016-11-24T08:29:38.354Z,74.2
2016-11-24T08:30:38.725Z,74.1
2016-11-24T08:31:39.097Z,74
2016-11-24T08:32:39.465Z,74
2016-11-24T08:33:39.825Z,74.4
2016-11-24T08:34:40.183Z,74.3
2016-11-24T08:35:40.544Z,74.3
2016-11-24T08:36:41.017Z,74.2
2016-11-24T08:37:41.387Z,74
2016-11-24T08:38:41.783Z,74.5
2016-11-24T08:39:42.152Z,74.5
2016-11-24T08:40:42.512Z,74.2
2016-11-24T08:41:42.870Z,74.2
2016-11-24T08:42:43.233Z,74.2
2016-11-24T08:43:43.592Z,74.2
2016-11-24T08:44:43.956Z,74.3
2016-11-24T08:45:44.329Z,74.2
2016-11-24T08:46:44.702Z,74.1
2016-11-24T08:47:45.080Z,74.2
2016-11-24T08:48:45.474Z,74.4
2016-11-24T08:49:45.830Z,74.2
2016-11-24T08:50:46.216Z,74.1
2016-11-24T08:51:46.584Z,74.3
2016-11-24T08:52:46.947Z,74.4
2016-11-24T08:53:47.313Z,74.3
2016-11-24T08:54:47.683Z,74.5
2016-11-24T08:55:48.052Z,74.7
2016-11-24T08:56:48.418Z,74.4
2016-11-24T08:57:48.782Z,74.4
2016-11-24T08:58:49.147Z,74.5
2016-11-24T08:59:49.520Z,74.1
2016-11-24T09:00:49.888Z,74
2016-11-24T09:01:50.243Z,74.3
2016-11-24T09:02:50.604Z,74.2
2016-11-24T09:03:50.960Z,74.2
2016-11-24T09:04:51.326Z,74.3
2016-11-24T09:05:51.696Z,74
2016-11-24T09:06:52.065Z,74
2016-11-24T09:07:52.435Z,74.3
2016-11-24T09:08:52.799Z,74.4
2016-11-24T09:09:53.155Z,74.6
2016-11-24T09:10:53.513Z,74.5
2016-11-24T09:11:53.868Z,74.7
2016-11-24T09:12:54.234Z,74.6
2016-11-24T09:13:54.602Z,74.9
2016-11-24T09:14:54.970Z,74.6
2016-11-24T09:15:55.343Z,74.6
2016-11-24T09:16:55.706Z,74.7
2016-11-24T09:17:56.064Z,74.7
2016-11-24T09:18:56.426Z,74.5
2016-11-24T09:19:56.783Z,74.5
2016-11-24T09:20:57.139Z,74.7
2016-11-24T09:21:57.514Z,74.3
2016-11-24T09:22:57.879Z,74.3
2016-11-24T09:23:58.240Z,74.6
2016-11-24T09:24:58.600Z,74.7
2016-11-24T09:25:58.962Z,75.2
2016-11-24T09:26:59.322Z,74.9
2016-11-24T09:27:59.681Z,74.7
2016-11-24T09:29:00.043Z,74.5
2016-11-24T09:30:00.409Z,74.6
2016-11-24T09:31:00.767Z,74.7
2016-11-24T09:32:01.124Z,74.5
2016-11-24T09:33:01.484Z,74.3
2016-11-24T09:34:01.861Z,74.6
2016-11-24T09:35:02.231Z,74.7
2016-11-24T09:36:02.603Z,74.7
2016-11-24T09:37:02.964Z,74.6
2016-11-24T09:38:03.321Z,74.4
2016-11-24T09:39:03.679Z,74.7
2016-11-24T09:40:04.041Z,74.9
2016-11-24T09:41:04.407Z,75
2016-11-24T09:42:04.775Z,75.3
2016-11-24T09:43:05.139Z,74.8
2016-11-24T09:44:05.510Z,75.4
2016-11-24T09:45:05.877Z,75.2
2016-11-24T09:46:06.236Z,74.8
2016-11-24T09:47:06.596Z,74.5
2016-11-24T09:48:06.993Z,74.3
2016-11-24T09:49:07.365Z,74.5
2016-11-24T09:50:07.740Z,74.5
2016-11-24T09:51:08.117Z,74.5
2016-11-24T09:52:08.490Z,74.4
2016-11-24T09:53:08.856Z,74.5
2016-11-24T09:54:09.220Z,74.5
2016-11-24T09:55:09.582Z,74.6
2016-11-24T09:56:09.943Z,74.5
2016-11-24T09:57:10.306Z,74.5
2016-11-24T09:58:10.681Z,74.5
2016-11-24T09:59:11.050Z,74.9
2016-11-24T10:00:11.418Z,74.8
2016-11-24T10:01:11.783Z,75.3
2016-11-24T10:02:12.144Z,75
2016-11-24T10:03:12.503Z,75
2016-11-24T10:04:12.870Z,74.8
2016-11-24T10:05:13.235Z,75.2
2016-11-24T10:06:13.592Z,75.3
2016-11-24T10:07:14.054Z,74.9
2016-11-24T10:08:14.412Z,74.4
2016-11-24T10:09:14.776Z,74.5
2016-11-24T10:10:15.143Z,74.3
2016-11-24T10:11:15.509Z,74.5
2016-11-24T10:12:15.872Z,74.4
2016-11-24T10:13:16.238Z,74.4
2016-11-24T10:14:16.594Z,74.3
2016-11-24T10:15:16.951Z,74.7
2016-11-24T10:16:17.312Z,75.3
2016-11-24T10:17:17.672Z,75.1
2016-11-24T10:18:18.036Z,74.8
2016-11-24T10:19:18.406Z,74.8
2016-11-24T10:20:18.781Z,75
2016-11-24T10:21:19.145Z,75.2
2016-11-24T10:22:19.506Z,75.2
2016-11-24T10:23:19.876Z,75.2
2016-11-24T10:24:20.239Z,74.9
2016-11-24T10:25:20.601Z,74.5
2016-11-24T10:26:20.968Z,74.4
2016-11-24T10:27:21.336Z,74.5
2016-11-24T10:28:21.711Z,74.5
2016-11-24T10:29:22.072Z,74.3
2016-11-24T10:30:22.430Z,74.6
2016-11-24T10:31:22.787Z,74.4
2016-11-24T10:32:23.161Z,74.6
2016-11-24T10:33:23.524Z,74.6
2016-11-24T10:34:23.900Z,74.9
2016-11-24T10:35:24.268Z,75.3
2016-11-24T10:36:24.649Z,75
2016-11-24T10:37:25.152Z,75.3
2016-11-24T10:38:25.555Z,75.3
2016-11-24T10:39:25.929Z,75
2016-11-24T10:40:26.301Z,75.2
2016-11-24T10:41:26.671Z,74.8
2016-11-24T10:42:27.028Z,74.8
2016-11-24T10:43:27.384Z,75.2
2016-11-24T10:44:27.747Z,74.7
2016-11-24T10:45:28.109Z,74.6
2016-11-24T10:46:28.477Z,74.5
2016-11-24T10:47:28.846Z,74.4
2016-11-24T10:48:29.218Z,74.4
2016-11-24T10:49:29.584Z,74.5
2016-11-24T10:50:29.950Z,74.7
2016-11-24T10:51:30.308Z,74.6
2016-11-24T10:52:30.667Z,74.7
2016-11-24T10:53:31.027Z,74.9
2016-11-24T10:54:31.398Z,74.9
2016-11-24T10:55:31.772Z,75.3
2016-11-24T10:56:32.140Z,75
2016-11-24T10:57:32.506Z,74.9
2016-11-24T10:58:32.869Z,74.9
2016-11-24T10:59:33.228Z,75.3
2016-11-24T11:00:33.588Z,75.2
2016-11-24T11:01:33.955Z,75
2016-11-24T11:02:34.320Z,74.7
2016-11-24T11:03:34.686Z,74.4
2016-11-24T11:04:35.057Z,74.5
2016-11-24T11:05:35.419Z,74.6
2016-11-24T11:06:35.779Z,74.4
2016-11-24T11:07:36.135Z,74.5
2016-11-24T11:08:36.499Z,74.6
2016-11-24T11:09:36.869Z,74.3
2016-11-24T11:10:37.239Z,74.7
2016-11-24T11:11:37.616Z,75
2016-11-24T11:12:37.983Z,75.2
2016-11-24T11:13:38.344Z,75.2
2016-11-24T11:14:38.702Z,75.2
2016-11-24T11:15:39.060Z,75
2016-11-24T11:16:39.419Z,75.2
2016-11-24T11:17:39.781Z,75.3
2016-11-24T11:18:40.149Z,75.2
2016-11-24T11:19:40.521Z,74.7
2016-11-24T11:20:40.915Z,74.5
2016-11-24T11:21:41.280Z,74.4
2016-11-24T11:22:41.636Z,74.6
2016-11-24T11:23:42.324Z,74.4
2016-11-24T11:24:42.682Z,74.3
2016-11-24T11:25:43.050Z,74.4
2016-11-24T11:26:43.437Z,74.6
2016-11-24T11:27:43.816Z,74.7
2016-11-24T11:28:44.189Z,74.6
2016-11-24T11:29:44.547Z,74.3
2016-11-24T11:30:44.905Z,74.3
2016-11-24T11:31:45.265Z,74.6
2016-11-24T11:32:45.627Z,74.5
2016-11-24T11:33:45.993Z,74.7
2016-11-24T11:34:46.361Z,75
2016-11-24T11:35:46.730Z,74.7
2016-11-24T11:36:47.096Z,74.7
2016-11-24T11:37:47.466Z,74.6
2016-11-24T11:38:47.827Z,74.6
2016-11-24T11:39:48.189Z,74.4
2016-11-24T11:40:48.563Z,74.3
2016-11-24T11:41:48.925Z,74.3
2016-11-24T11:42:49.286Z,74.5
2016-11-24T11:43:49.649Z,74.4
2016-11-24T11:44:50.008Z,74.5
2016-11-24T11:45:50.373Z,74.4
2016-11-24T11:46:50.749Z,74.7
2016-11-24T11:47:51.121Z,74.3
2016-11-24T11:48:51.487Z,74.6
2016-11-24T11:49:51.852Z,74.5
2016-11-24T11:50:52.213Z,74.5
2016-11-24T11:51:52.575Z,74.3
2016-11-24T11:52:52.935Z,74.7
2016-11-24T11:53:53.298Z,74.7
2016-11-24T11:54:53.668Z,74.4
2016-11-24T11:55:54.038Z,74.6
2016-11-24T11:56:54.411Z,74.6
2016-11-24T11:57:54.783Z,74.6
2016-11-24T11:58:55.147Z,74.3
2016-11-24T11:59:55.511Z,74.2
2016-11-24T12:00:55.871Z,74.3
2016-11-24T12:01:56.240Z,74.4
2016-11-24T12:02:56.608Z,74.4
2016-11-24T12:03:56.978Z,74.4
2016-11-24T12:04:57.345Z,74.6
2016-11-24T12:05:57.715Z,74.6
2016-11-24T12:06:58.079Z,74.7
2016-11-24T12:07:58.434Z,74.5
2016-11-24T12:08:58.800Z,74.3
2016-11-24T12:09:59.167Z,74.8
2016-11-24T12:10:59.535Z,74.5
2016-11-24T12:11:59.903Z,74.4
2016-11-24T12:13:00.266Z,74.5
2016-11-24T12:14:00.630Z,74.4
2016-11-24T12:15:01.008Z,74.6
2016-11-24T12:16:01.379Z,74.3
2016-11-24T12:17:01.748Z,74.6
2016-11-24T12:18:02.111Z,74.5
2016-11-24T12:19:02.470Z,74.6
2016-11-24T12:20:02.831Z,74.6
2016-11-24T12:21:03.195Z,74.6
2016-11-24T12:22:03.562Z,74.3
2016-11-24T12:23:03.929Z,74.8
2016-11-24T12:24:04.297Z,75
2016-11-24T12:25:04.665Z,75.2
2016-11-24T12:26:05.032Z,74.9
2016-11-24T12:27:05.392Z,74.9
2016-11-24T12:28:05.752Z,74.2
2016-11-24T12:29:06.114Z,74.4
2016-11-24T12:30:06.479Z,74.3
2016-11-24T12:31:06.848Z,74.6
2016-11-24T12:32:07.223Z,74.4
2016-11-24T12:33:07.596Z,74.3
2016-11-24T12:34:07.975Z,74.6
2016-11-24T12:35:08.335Z,74.4
2016-11-24T12:36:08.689Z,74.5
2016-11-24T12:37:09.049Z,74.4
2016-11-24T12:38:09.411Z,74.5
2016-11-24T12:39:09.780Z,74.7
2016-11-24T12:40:10.153Z,74.7
2016-11-24T12:41:10.523Z,74.8
2016-11-24T12:42:10.889Z,74.7
2016-11-24T12:43:11.248Z,75.3
2016-11-24T12:44:11.614Z,75.2
2016-11-24T12:45:11.986Z,75.2
2016-11-24T12:46:12.351Z,74.4
2016-11-24T12:47:12.718Z,74.5
2016-11-24T12:48:13.074Z,74.6
2016-11-24T12:49:13.433Z,74.5
2016-11-24T12:50:13.796Z,74.6
2016-11-24T12:51:14.162Z,74.6
2016-11-24T12:52:14.530Z,74.3
2016-11-24T12:53:14.900Z,74.6
2016-11-24T12:54:15.269Z,74.5
2016-11-24T12:55:15.633Z,74.7
2016-11-24T12:56:15.996Z,74.8
2016-11-24T12:57:16.357Z,74.5
2016-11-24T12:58:17.063Z,74.7
2016-11-24T12:59:17.430Z,75
2016-11-24T13:00:17.795Z,75.3
2016-11-24T13:01:18.166Z,75.1
2016-11-24T13:02:18.530Z,74.7
2016-11-24T13:03:18.894Z,74.3
2016-11-24T13:04:19.257Z,74.6
2016-11-24T13:05:19.619Z,74.8
2016-11-24T13:06:20.017Z,74.4
2016-11-24T13:07:20.385Z,74.7
2016-11-24T13:08:20.758Z,74.5
2016-11-24T13:09:21.129Z,74.6
2016-11-24T13:10:21.493Z,74.7
2016-11-24T13:11:21.856Z,74.6
2016-11-24T13:12:22.215Z,74.6
2016-11-24T13:13:22.572Z,75
2016-11-24T13:14:22.932Z,75
2016-11-24T13:15:23.299Z,75.1
2016-11-24T13:16:23.665Z,75.3
2016-11-24T13:17:24.023Z,74.8
2016-11-24T13:18:24.387Z,74.6
2016-11-24T13:19:24.762Z,74.7
2016-11-24T13:20:25.142Z,74.5
2016-11-24T13:21:25.516Z,74.3
2016-11-24T13:22:25.883Z,74.5
2016-11-24T13:23:26.248Z,74.4
2016-11-24T13:24:26.606Z,74.7
2016-11-24T13:25:26.964Z,74.5
2016-11-24T13:26:27.331Z,74.5
2016-11-24T13:27:27.701Z,74.3